Time;durP1;ratioP1;P1;durP2;ratioP2;P2;SDS_P1;SDS_P2;PMS_P1;PMS_P2;Temp;Humidity;BMP_temperature;BMP_pressure;BME280_temperature;BME280_humidity;BME280_pressure;Samples;Min_cycle;Max_cycle;Signal;HPM_P1;HPM_P2
2021/11/02 00:04:30;;;;;;;3.00;0.60;;;;;;;;;;10489978;28;20052;-72
2021/11/02 00:09:39;;;;;;;1.58;0.68;;;;;;;;;;10489593;28;20056;-72
2021/11/02 00:14:42;;;;;;;1.38;0.82;;;;;;;;;;10486069;28;20053;-71
2021/11/02 00:19:47;;;;;;;1.65;1.02;;;;;;;;;;10482086;28;20060;-72
2021/11/02 00:25:04;;;;;;;1.67;0.80;;;;;;;;;;10484481;28;20118;-72
2021/11/02 00:30:08;;;;;;;2.67;0.77;;;;;;;;;;10487625;28;20122;-74
2021/11/02 00:35:11;;;;;;;;;;;;;;;;;;10486548;28;20477;-74
2021/11/02 00:40:16;;;;;;;0.28;0.25;;;;;;;;;;10487994;28;19920;-72
2021/11/02 00:45:27;;;;;;;1.17;0.60;;;;;;;;;;10488097;28;20040;-72
2021/11/02 00:50:31;;;;;;;1.17;0.40;;;;;;;;;;10488136;28;20565;-72
2021/11/02 00:55:35;;;;;;;1.35;0.80;;;;;;;;;;10483852;28;20094;-71
2021/11/02 01:00:38;;;;;;;0.50;0.32;;;;;;;;;;10482746;28;20369;-72
2021/11/02 01:05:41;;;;;;;0.83;0.50;;;;;;;;;;10485971;28;20037;-73
2021/11/02 01:10:48;;;;;;;1.25;0.80;;;;;;;;;;10491008;28;20040;-73
2021/11/02 01:15:51;;;;;;;0.82;0.47;;;;;;;;;;10488670;28;20044;-72
2021/11/02 01:20:54;;;;;;;2.92;1.15;;;;;;;;;;10489208;28;20055;-73
2021/11/02 01:25:58;;;;;;;1.48;0.70;;;;;;;;;;10479040;28;20068;-71
2021/11/02 01:31:01;;;;;;;1.55;0.85;;;;;;;;;;10487136;28;20945;-73
2021/11/02 01:36:04;;;;;;;1.27;0.70;;;;;;;;;;10484286;28;20071;-73
2021/11/02 01:41:09;;;;;;;2.50;0.60;;;;;;;;;;10481307;28;20131;-73
2021/11/02 01:46:20;;;;;;;1.20;0.77;;;;;;;;;;10484611;28;20384;-72
2021/11/02 01:51:24;;;;;;;1.45;0.50;;;;;;;;;;10484337;28;20376;-73
2021/11/02 01:56:28;;;;;;;1.47;0.83;;;;;;;;;;10478787;28;20106;-73
2021/11/02 02:01:34;;;;;;;0.22;0.22;;;;;;;;;;10485159;28;20043;-75
2021/11/02 02:06:42;;;;;;;1.20;0.80;;;;;;;;;;10481152;28;20475;-72
2021/11/02 02:12:06;;;;;;;0.75;0.57;;;;;;;;;;10484965;28;20040;-73
2021/11/02 02:17:32;;;;;;;1.07;0.40;;;;;;;;;;10479535;28;20468;-71
2021/11/02 02:22:58;;;;;;;0.68;0.63;;;;;;;;;;10480614;28;20496;-72
2021/11/02 02:28:07;;;;;;;0.57;0.45;;;;;;;;;;10483465;28;20538;-74
2021/11/02 02:33:30;;;;;;;0.60;0.47;;;;;;;;;;10480487;28;20412;-74
2021/11/02 02:38:35;;;;;;;2.53;0.73;;;;;;;;;;10481135;28;21347;-69
2021/11/02 02:43:41;;;;;;;1.92;0.85;;;;;;;;;;10482681;28;20043;-73
2021/11/02 02:48:46;;;;;;;1.13;0.73;;;;;;;;;;10511109;28;20385;-73
2021/11/02 02:53:49;;;;;;;2.30;0.80;;;;;;;;;;10483986;28;20037;-73
2021/11/02 02:58:54;;;;;;;1.08;0.98;;;;;;;;;;10479756;28;20697;-71
2021/11/02 03:03:58;;;;;;;1.23;0.60;;;;;;;;;;10485029;28;20530;-73
2021/11/02 03:09:01;;;;;;;;;;;;;;;;;;10481996;28;20554;-75
2021/11/02 03:14:08;;;;;;;0.95;0.52;;;;;;;;;;10484393;28;19963;-70
2021/11/02 03:57:03;;;;;;;0.82;0.60;;;;;;;;;;10468464;28;20127;-72
2021/11/02 04:23:59;;;;;;;0.20;0.20;;;;;;;;;;10478598;28;20508;-72
2021/11/02 05:50:05;;;;;;;1.35;0.50;;;;;;;;;;10485924;28;20195;-71
2021/11/02 06:00:28;;;;;;;2.53;0.98;;;;;;;;;;10486142;28;20114;-74
2021/11/02 06:05:51;;;;;;;0.90;0.43;;;;;;;;;;10482868;28;20054;-70
2021/11/02 06:11:11;;;;;;;1.60;0.60;;;;;;;;;;10483195;28;20040;-72
2021/11/02 06:32:30;;;;;;;0.90;0.60;;;;;;;;;;10482598;28;20081;-72
2021/11/02 06:37:46;;;;;;;0.52;0.30;;;;;;;;;;10482988;28;20523;-74
2021/11/02 06:43:09;;;;;;;2.92;0.70;;;;;;;;;;10473742;28;20048;-72
2021/11/02 07:15:31;;;;;;;1.27;0.70;;;;;;;;;;10640597;27;20515;-72
2021/11/02 07:20:39;;;;;;;1.58;0.40;;;;;;;;;;10632859;27;20095;-70
2021/11/02 07:25:53;;;;;;;1.75;0.77;;;;;;;;;;10632155;27;20046;-72
2021/11/02 08:46:12;;;;;;;1.55;0.95;;;;;;;;;;10594220;27;20066;-74
2021/11/02 08:51:15;;;;;;;;;;;;;;;;;;10601112;27;20084;-73
2021/11/02 08:56:19;;;;;;;1.45;0.70;;;;;;;;;;10602873;27;19979;-73
2021/11/02 09:01:23;;;;;;;2.08;0.82;;;;;;;;;;10605734;27;20386;-73
2021/11/02 09:06:27;;;;;;;2.05;1.02;;;;;;;;;;10591716;27;20111;-73
2021/11/02 09:11:32;;;;;;;1.27;0.70;;;;;;;;;;10602908;27;20439;-74
2021/11/02 09:16:35;;;;;;;2.58;0.85;;;;;;;;;;10599108;27;20042;-72
2021/11/02 09:21:38;;;;;;;1.58;0.98;;;;;;;;;;10599124;27;20043;-73
2021/11/02 09:26:42;;;;;;;3.20;1.52;;;;;;;;;;10602317;27;20483;-72
2021/11/02 09:31:46;;;;;;;3.15;1.02;;;;;;;;;;10598856;27;20426;-71
2021/11/02 09:36:54;;;;;;;2.55;0.90;;;;;;;;;;10596541;27;20046;-72
2021/11/02 09:42:20;;;;;;;1.92;0.90;;;;;;;;;;10601603;27;20126;-73
2021/11/02 09:47:44;;;;;;;2.47;0.90;;;;;;;;;;10599882;27;20360;-73
2021/11/02 09:52:46;;;;;;;;;;;;;;;;;;10573184;27;20040;-73
2021/11/02 09:57:49;;;;;;;;;;;;;;;;;;10595914;27;19998;-72
2021/11/02 10:03:11;;;;;;;3.75;1.38;;;;;;;;;;10593055;27;20027;-72
2021/11/02 10:08:34;;;;;;;;;;;;;;;;;;10596792;27;20501;-72
2021/11/02 10:14:00;;;;;;;2.10;1.00;;;;;;;;;;10604197;27;20041;-72
2021/11/02 10:19:04;;;;;;;;;;;;;;;;;;10570933;27;20507;-74
2021/11/02 10:24:06;;;;;;;;;;;;;;;;;;10603458;27;20048;-74
2021/11/02 10:29:09;;;;;;;;;;;;;;;;;;10605130;27;19979;-73
2021/11/02 10:34:11;;;;;;;;;;;;;;;;;;10604003;27;19924;-73
2021/11/02 10:39:17;;;;;;;;;;;;;;;;;;10601488;27;19964;-72
2021/11/02 10:44:20;;;;;;;;;;;;;;;;;;10593708;27;19977;-72
2021/11/02 10:49:22;;;;;;;;;;;;;;;;;;10606593;27;20371;-73
2021/11/02 10:54:25;;;;;;;;;;;;;;;;;;10601281;27;19945;-73
2021/11/02 10:59:27;;;;;;;;;;;;;;;;;;10597585;27;19938;-73
2021/11/02 11:04:30;;;;;;;;;;;;;;;;;;10594534;28;19950;-72
2021/11/02 11:09:32;;;;;;;;;;;;;;;;;;10605032;27;19931;-73
2021/11/02 11:14:36;;;;;;;;;;;;;;;;;;10594234;27;19919;-73
2021/11/02 11:19:38;;;;;;;;;;;;;;;;;;10596796;27;20389;-72
2021/11/02 11:24:41;;;;;;;;;;;;;;;;;;10588132;28;19919;-73
2021/11/02 11:29:46;;;;;;;1.67;0.52;;;;;;;;;;10594792;27;20395;-73
2021/11/02 11:34:48;;;;;;;;;;;;;;;;;;10591747;27;20082;-74
2021/11/02 11:39:51;;;;;;;;;;;;;;;;;;10605449;27;19920;-73
2021/11/02 11:44:53;;;;;;;;;;;;;;;;;;10602181;27;19930;-71
2021/11/02 11:49:56;;;;;;;;;;;;;;;;;;10608178;27;19923;-70
2021/11/02 11:54:58;;;;;;;;;;;;;;;;;;10599774;27;19977;-72
2021/11/02 12:00:01;;;;;;;;;;;;;;;;;;10600080;27;19947;-69
2021/11/02 12:05:17;;;;;;;1.27;0.57;;;;;;;;;;10598672;27;20007;-72
2021/11/02 12:10:25;;;;;;;1.05;0.55;;;;;;;;;;10591411;27;20112;-73
2021/11/02 12:15:42;;;;;;;1.35;0.60;;;;;;;;;;10592069;27;20417;-69
2021/11/02 12:20:47;;;;;;;2.08;0.28;;;;;;;;;;10599991;27;20043;-71
2021/11/02 12:25:51;;;;;;;0.47;0.30;;;;;;;;;;10604597;27;20107;-72
2021/11/02 12:30:56;;;;;;;3.50;0.82;;;;;;;;;;10596636;27;20043;-72
2021/11/02 12:36:03;;;;;;;1.10;0.85;;;;;;;;;;10600611;27;20066;-72
2021/11/02 12:41:16;;;;;;;2.45;0.60;;;;;;;;;;10604284;27;20085;-72
2021/11/02 12:46:19;;;;;;;0.25;0.25;;;;;;;;;;10599332;27;20147;-70
2021/11/02 12:51:24;;;;;;;;;;;;;;;;;;10604104;27;20059;-72
2021/11/02 12:56:27;;;;;;;;;;;;;;;;;;10588161;27;20301;-72
2021/11/02 13:01:29;;;;;;;;;;;;;;;;;;10601133;27;19923;-72
2021/11/02 13:06:32;;;;;;;;;;;;;;;;;;10603760;27;19927;-72
2021/11/02 13:11:35;;;;;;;;;;;;;;;;;;10606442;27;19962;-73
2021/11/02 13:16:37;;;;;;;;;;;;;;;;;;10605014;27;19919;-71
2021/11/02 13:21:40;;;;;;;;;;;;;;;;;;10587124;27;19919;-70
2021/11/02 13:26:42;;;;;;;;;;;;;;;;;;10595095;27;19923;-74
2021/11/02 13:31:45;;;;;;;;;;;;;;;;;;10595230;27;19935;-72
2021/11/02 13:36:47;;;;;;;;;;;;;;;;;;10594744;27;19965;-72
2021/11/02 13:41:50;;;;;;;;;;;;;;;;;;10598782;27;20379;-73
2021/11/02 13:46:53;;;;;;;;;;;;;;;;;;10603374;27;19927;-70
2021/11/02 13:51:56;;;;;;;;;;;;;;;;;;10598062;27;19936;-73
2021/11/02 13:56:58;;;;;;;;;;;;;;;;;;10593962;27;20434;-70
2021/11/02 14:02:01;;;;;;;;;;;;;;;;;;10599108;27;20163;-73
2021/11/02 14:07:04;;;;;;;;;;;;;;;;;;10600131;27;20014;-73
2021/11/02 14:12:06;;;;;;;;;;;;;;;;;;10598397;27;19935;-74
2021/11/02 14:17:09;;;;;;;;;;;;;;;;;;10599767;27;20372;-73
2021/11/02 14:22:11;;;;;;;;;;;;;;;;;;10600153;27;19930;-72
2021/11/02 14:27:14;;;;;;;;;;;;;;;;;;10591275;27;19985;-73
2021/11/02 14:32:17;;;;;;;;;;;;;;;;;;10606118;27;19970;-74
2021/11/02 14:37:19;;;;;;;;;;;;;;;;;;10611102;27;19945;-73
2021/11/02 14:42:36;;;;;;;1.08;0.30;;;;;;;;;;10614302;27;20337;-72
2021/11/02 14:47:39;;;;;;;;;;;;;;;;;;10609323;27;20051;-73
2021/11/02 14:52:42;;;;;;;;;;;;;;;;;;10599503;27;19969;-74
2021/11/02 14:57:53;;;;;;;0.30;0.30;;;;;;;;;;10609684;27;20000;-74
2021/11/02 15:02:56;;;;;;;0.75;0.22;;;;;;;;;;10594299;28;20040;-72
2021/11/02 15:07:59;;;;;;;0.77;0.37;;;;;;;;;;10587629;28;20448;-70
2021/11/02 15:13:03;;;;;;;0.10;0.10;;;;;;;;;;10598064;27;20050;-71
2021/11/02 15:18:06;;;;;;;0.40;0.32;;;;;;;;;;10599723;27;20050;-72
2021/11/02 15:23:09;;;;;;;;;;;;;;;;;;10606368;27;20088;-73
2021/11/02 15:28:15;;;;;;;0.30;0.30;;;;;;;;;;10588519;27;19919;-72
2021/11/02 15:33:26;;;;;;;0.65;0.50;;;;;;;;;;10603000;27;20436;-72
2021/11/02 15:38:28;;;;;;;0.50;0.50;;;;;;;;;;10603401;27;20113;-71
2021/11/02 15:43:32;;;;;;;0.73;0.57;;;;;;;;;;10591861;27;20482;-71
2021/11/02 15:48:36;;;;;;;;;;;;;;;;;;10603489;27;20142;-72
2021/11/02 15:53:38;;;;;;;;;;;;;;;;;;10599831;27;19991;-70
2021/11/02 15:58:41;;;;;;;;;;;;;;;;;;10599916;27;19939;-72
2021/11/02 16:03:43;;;;;;;;;;;;;;;;;;10598644;27;20022;-70
2021/11/02 16:08:46;;;;;;;;;;;;;;;;;;10595172;27;19958;-72
2021/11/02 16:13:48;;;;;;;;;;;;;;;;;;10603513;27;20328;-72
2021/11/02 16:18:51;;;;;;;;;;;;;;;;;;10607660;27;20051;-73
2021/11/02 16:23:54;;;;;;;;;;;;;;;;;;10601540;27;19924;-72
2021/11/02 16:28:58;;;;;;;;;;;;;;;;;;10608516;27;20299;-71
2021/11/02 16:34:01;;;;;;;;;;;;;;;;;;10606933;27;19927;-72
2021/11/02 16:39:03;;;;;;;;;;;;;;;;;;10599523;27;20362;-72
2021/11/02 16:44:06;;;;;;;;;;;;;;;;;;10598842;27;20009;-71
2021/11/02 16:49:09;;;;;;;;;;;;;;;;;;10604694;27;19923;-70
2021/11/02 16:54:11;;;;;;;;;;;;;;;;;;10592799;27;19976;-71
2021/11/02 16:59:14;;;;;;;;;;;;;;;;;;10598659;27;20276;-70
2021/11/02 17:04:16;;;;;;;;;;;;;;;;;;10609962;27;20023;-71
2021/11/02 17:09:19;;;;;;;;;;;;;;;;;;10599589;27;19931;-72
2021/11/02 17:14:25;;;;;;;;;;;;;;;;;;10589806;27;19992;-70
2021/11/02 17:19:27;;;;;;;;;;;;;;;;;;10593150;27;19980;-69
2021/11/02 17:24:31;;;;;;;;;;;;;;;;;;10583864;27;20010;-72
2021/11/02 17:29:34;;;;;;;;;;;;;;;;;;10610061;27;19987;-72
2021/11/02 17:34:39;;;;;;;0.75;0.52;;;;;;;;;;10600542;27;19966;-72
2021/11/02 17:39:42;;;;;;;0.82;0.50;;;;;;;;;;10601941;27;20088;-73
2021/11/02 17:44:45;;;;;;;1.73;0.65;;;;;;;;;;10599528;27;20043;-72
2021/11/02 17:49:50;;;;;;;1.13;0.67;;;;;;;;;;10601283;27;20066;-72
2021/11/02 17:54:53;;;;;;;1.42;0.60;;;;;;;;;;10598855;27;20187;-71
2021/11/02 17:59:56;;;;;;;0.30;0.30;;;;;;;;;;10600558;27;20039;-72
2021/11/02 18:05:01;;;;;;;1.40;0.90;;;;;;;;;;10598507;27;20116;-73
2021/11/02 18:10:03;;;;;;;;;;;;;;;;;;10606690;27;20372;-72
2021/11/02 18:15:06;;;;;;;;;;;;;;;;;;10592213;27;19927;-71
2021/11/02 18:20:08;;;;;;;;;;;;;;;;;;10594525;27;20015;-71
2021/11/02 18:25:15;;;;;;;1.20;0.60;;;;;;;;;;10603529;27;20043;-73
2021/11/02 18:30:20;;;;;;;1.85;1.00;;;;;;;;;;10594903;27;20043;-71
2021/11/02 18:35:22;;;;;;;1.67;0.68;;;;;;;;;;10596020;27;20084;-72
2021/11/02 18:40:47;;;;;;;3.33;1.60;;;;;;;;;;10591994;27;20425;-72
2021/11/02 18:46:10;;;;;;;3.63;1.45;;;;;;;;;;10587363;27;20425;-71
2021/11/02 18:51:33;;;;;;;1.90;1.10;;;;;;;;;;10592237;27;20450;-72
2021/11/02 18:56:57;;;;;;;2.72;1.08;;;;;;;;;;10586679;27;20780;-72
2021/11/02 19:02:20;;;;;;;2.58;1.23;;;;;;;;;;10588029;27;20422;-70
2021/11/02 19:07:42;;;;;;;;;;;;;;;;;;10602171;28;20070;-70
2021/11/02 19:13:05;;;;;;;;;;;;;;;;;;10599854;27;20571;-72
2021/11/02 19:18:26;;;;;;;;;;;;;;;;;;10595545;27;20374;-72
2021/11/02 19:23:47;;;;;;;;;;;;;;;;;;10600732;27;20422;-70
2021/11/02 19:28:52;;;;;;;1.45;0.85;;;;;;;;;;10590882;27;20010;-70
2021/11/02 19:33:56;;;;;;;1.20;0.73;;;;;;;;;;10605173;27;20395;-71
2021/11/02 19:38:59;;;;;;;9.30;0.80;;;;;;;;;;10598080;27;20112;-72
2021/11/02 19:44:05;;;;;;;0.30;0.17;;;;;;;;;;10606196;27;20041;-72
2021/11/02 19:49:07;;;;;;;1.52;0.70;;;;;;;;;;10603937;27;20062;-72
2021/11/02 19:54:10;;;;;;;1.55;0.60;;;;;;;;;;10597495;27;20087;-70
2021/11/02 19:59:15;;;;;;;1.92;0.63;;;;;;;;;;10602591;27;20047;-72
2021/11/02 20:04:17;;;;;;;1.55;0.98;;;;;;;;;;10601747;27;20664;-70
2021/11/02 20:09:25;;;;;;;2.47;0.60;;;;;;;;;;10603134;27;20495;-72
2021/11/02 20:14:34;;;;;;;3.22;1.08;;;;;;;;;;10599714;27;20111;-71
2021/11/02 20:19:37;;;;;;;2.05;1.05;;;;;;;;;;10602147;27;20055;-71
2021/11/02 20:24:41;;;;;;;2.40;1.30;;;;;;;;;;10593339;27;20514;-72
2021/11/02 20:29:45;;;;;;;1.10;0.82;;;;;;;;;;10619611;27;20551;-75
2021/11/02 20:34:50;;;;;;;1.95;0.93;;;;;;;;;;10629929;27;20043;-76
2021/11/02 20:39:55;;;;;;;0.93;0.73;;;;;;;;;;10628987;27;20066;-77
2021/11/02 20:45:00;;;;;;;1.23;0.77;;;;;;;;;;10628382;27;20039;-75
2021/11/02 20:50:04;;;;;;;1.77;1.00;;;;;;;;;;10622653;27;20061;-74
2021/11/02 20:55:09;;;;;;;1.50;1.00;;;;;;;;;;10604717;27;20103;-72
2021/11/02 21:00:13;;;;;;;2.17;1.15;;;;;;;;;;10595700;27;20048;-71
2021/11/02 21:05:17;;;;;;;3.67;1.30;;;;;;;;;;10601578;27;20027;-72
2021/11/02 21:10:24;;;;;;;2.40;1.45;;;;;;;;;;10593504;27;20051;-70
2021/11/02 21:15:44;;;;;;;7.03;3.05;;;;;;;;;;10603402;27;20064;-71
2021/11/02 21:20:47;;;;;;;5.07;1.35;;;;;;;;;;10599692;27;20175;-70
2021/11/02 21:25:50;;;;;;;2.60;1.17;;;;;;;;;;10593429;27;20133;-71
2021/11/02 21:30:56;;;;;;;3.95;1.50;;;;;;;;;;10586308;27;20109;-70
2021/11/02 21:35:59;;;;;;;2.30;1.35;;;;;;;;;;10587409;27;20048;-71
2021/11/02 21:41:04;;;;;;;2.40;1.02;;;;;;;;;;10596749;27;20159;-71
2021/11/02 21:46:09;;;;;;;4.07;1.48;;;;;;;;;;10589555;27;20027;-72
2021/11/02 21:51:13;;;;;;;4.38;1.60;;;;;;;;;;10597358;27;20419;-72
2021/11/02 21:56:18;;;;;;;2.17;1.15;;;;;;;;;;10591236;27;20035;-70
2021/11/02 22:01:23;;;;;;;1.75;0.90;;;;;;;;;;10588264;27;20652;-69
2021/11/02 22:06:26;;;;;;;0.60;0.60;;;;;;;;;;10597445;27;20126;-69
2021/11/02 22:11:29;;;;;;;1.10;0.63;;;;;;;;;;10593344;27;20104;-70
2021/11/02 22:16:35;;;;;;;6.13;1.73;;;;;;;;;;10603851;27;20055;-69
2021/11/02 22:21:44;;;;;;;2.60;1.30;;;;;;;;;;10577873;27;20407;-71
2021/11/02 22:26:49;;;;;;;2.33;1.30;;;;;;;;;;10598021;27;20553;-71
2021/11/02 22:31:55;;;;;;;2.53;1.07;;;;;;;;;;10594256;27;20039;-71
2021/11/02 22:36:58;;;;;;;1.38;0.75;;;;;;;;;;10589554;27;20036;-73
2021/11/02 22:42:01;;;;;;;0.97;0.37;;;;;;;;;;10601021;27;20066;-72
2021/11/02 22:47:06;;;;;;;0.53;0.43;;;;;;;;;;10590190;27;20103;-72
2021/11/02 22:52:10;;;;;;;1.30;0.80;;;;;;;;;;10587120;27;20045;-71
2021/11/02 22:57:13;;;;;;;1.23;0.57;;;;;;;;;;10592474;27;20088;-73
2021/11/02 23:02:17;;;;;;;1.10;0.83;;;;;;;;;;10599024;27;20043;-72
2021/11/02 23:07:21;;;;;;;1.57;0.90;;;;;;;;;;10595129;28;20043;-71
2021/11/02 23:12:25;;;;;;;2.05;1.10;;;;;;;;;;10579558;27;20062;-71
2021/11/02 23:17:28;;;;;;;;;;;;;;;;;;10617615;27;20042;-71
2021/11/02 23:22:38;;;;;;;1.50;0.70;;;;;;;;;;10583743;28;19919;-69
2021/11/02 23:27:41;;;;;;;2.33;1.20;;;;;;;;;;10586615;28;20407;-71
2021/11/02 23:32:46;;;;;;;1.63;1.00;;;;;;;;;;10592515;27;20067;-70
2021/11/02 23:37:50;;;;;;;3.20;0.70;;;;;;;;;;10600728;27;20043;-71
2021/11/02 23:42:53;;;;;;;1.13;0.90;;;;;;;;;;10595722;27;20074;-70
2021/11/02 23:47:56;;;;;;;0.22;0.20;;;;;;;;;;10583207;27;20031;-70
2021/11/02 23:53:01;;;;;;;1.00;0.57;;;;;;;;;;10578621;27;20075;-70
2021/11/02 23:58:04;;;;;;;3.90;0.43;;;;;;;;;;10583592;27;20054;-73
